CYBWCYXC

Guest
Details From CYBW - Calgary Springbank
To CYXC - CANADIAN ROCKIES INTL
Flight Number -
Tags generated
Created
Modified
Stats Distance 109 nm / 202 km
Max Altitude 8,100 ft / 2,469 m
Waypoints 3
Social Downloads 0
Likes 0
Share VATSIM

Download

Looking for another format? Having issues loading an existing format? Contact us
Advertisement - Login to hide

Notes

Basic altitude profile: - Ascent Rate: 700ft/min - Ascent Speed: 80kts - Cruise Altitude: 10500ft - Cruise Speed: 110kts - Descent Rate: 500ft/min - Descent Speed: 110kts Options: - Use NATs: yes - Use PACOTS: no - Use low airways: no - Use high airways: no

Route

CYBW 5000N11500W CYXC

ID Type Via Altitude Latitude Longitude Leg Dist Tot Dist Heading (true) Name
O CYBW APT - 0 ft / 0 m 51.11176˚ -114.37654˚ - 0 nm - Calgary Springbank
5000N11500W LATLON - 8,100 ft / 2,469 m 50.00000˚ -115.00000˚ 70 nm 70 nm 200° / 199° -
O CYXC APT - 0 ft / 0 m 49.61212˚ -115.78205˚ 38 nm 109 nm 233° / 232° CANADIAN ROCKIES INTL

Altitude Profile

Advertisement - Login to hide

CYBW

Details ICAO CYBW (YBW)
Name Calgary Springbank
Region Canada
Timezone America/Edmonton (UTC-6.0)
Stats Elevation 3,937 ft / 1,200 m (AMSL)
Location 51.111765° -114.376537°
Runways 2
Magnetic Variation 14.171° E

METAR

CYBW 250800Z AUTO 31005KT 9SM CLR 10/06 A2989 RMK SLP120 DENSITY ALT 4300FT

Decode

TAF

TAF CYBW 242341Z 2500/2504 29010KT P6SM FEW100 TEMPO 2500/2502 VRB20G30KT RMK FCST BASED ON AUTO OBS. NXT FCST WILL BE ISSUED AT 251145Z

Decode

Departure Runways

ID Width Length Bearing (true) Bearing (mag) Surface Threshold Offset Overrun Length
07 100 ft / 30 m 3,389 ft / 1,033 m 89.99° 75.82° Asphalt 0 ft / 0 m 0 ft / 0 m
16 75 ft / 23 m 3,083 ft / 940 m 180.71° 166.54° Asphalt 0 ft / 0 m 0 ft / 0 m
25 100 ft / 30 m 3,389 ft / 1,033 m 270.01° 255.84° Asphalt 0 ft / 0 m 0 ft / 0 m
34 75 ft / 23 m 3,083 ft / 940 m 0.71° 346.54° Asphalt 0 ft / 0 m 0 ft / 0 m

CYXC

Details ICAO CYXC (YXC)
Name CANADIAN ROCKIES INTL
Region Canada
Timezone America/Edmonton (UTC-6.0)
Stats Elevation 3,084 ft / 940 m (AMSL)
Location 49.612121° -115.782055°
Runways 1
Magnetic Variation 14.391° E

METAR

CYXC 250800Z 15008KT 25SM FEW085 BKN130 16/10 A2995 RMK AC2AC5 SLP133 DENSITY ALT 3900FT

Decode

TAF

TAF CYXC 250638Z 2507/2519 15005KT P6SM BKN080 TEMPO 2507/2510 P6SM -SHRA FM251000 15005KT P6SM SCT080 RMK NXT FCST BY 251300Z

Decode

Destination Runways

ID Width Length Bearing (true) Bearing (mag) Surface Threshold Offset Overrun Length
16 150 ft / 46 m 8,000 ft / 2,438 m 179.16° 164.77° Asphalt 780 ft / 238 m 0 ft / 0 m
34 150 ft / 46 m 8,000 ft / 2,438 m 359.16° 344.77° Asphalt 0 ft / 0 m 0 ft / 0 m

Approach Navaids

Runway Type Ident Frequency Range Bearing (true) Bearing (mag) Slope Elevation
16 Localiser IXC 110.30 MHz 18 nm / 33 km 179.82° 165.43° - 3,058 ft / 932 m (AMSL)
16 Glidescope IXC 110.30 MHz 10 nm / 19 km 179.16° 164.77° 3.00° 3,015 ft / 919 m (AMSL)

Popular Alternatives